Terminal Aerodrome Forecast
Issued by NWS Corpus Christi, TX

Home | Current Version | Previous Version | Text Only | Print | Product List | Glossary On
Versions: 1 2 3 4 5 6 7 8 9 10 11 12 13 14 15 16 17 18 19 20 21 22 23 24
037
FTUS44 KCRP 291720
TAFCRP
TAF
KCRP 291720Z 2918/3018 09009KT P6SM SCT025 OVC045
      TEMPO 2918/2920 VRB18G28KT 5SM -SHRA BKN019 OVC045
     FM300600 05008KT P6SM SCT022 BKN080
      TEMPO 3008/3012 4SM BR BKN020=

USA.gov is the U.S. government's official web portal to all federal, state and local government web resources and services.